sensor_id;sensor_type;location;lat;lon;timestamp;P1;durP1;ratioP1;P2;durP2;ratioP2
33148;SDS011;19506;51.040;3.856;2023-02-05T00:00:22;12.32;;;5.38;;
33148;SDS011;19506;51.040;3.856;2023-02-05T00:02:48;6.47;;;4.35;;
33148;SDS011;19506;51.040;3.856;2023-02-05T00:05:14;10.65;;;5.32;;
33148;SDS011;19506;51.040;3.856;2023-02-05T00:07:40;9.88;;;4.50;;
33148;SDS011;19506;51.040;3.856;2023-02-05T00:10:05;9.10;;;4.45;;
33148;SDS011;19506;51.040;3.856;2023-02-05T00:12:31;9.50;;;4.43;;
33148;SDS011;19506;51.040;3.856;2023-02-05T00:17:22;10.50;;;5.15;;
33148;SDS011;19506;51.040;3.856;2023-02-05T00:19:48;9.00;;;4.72;;
33148;SDS011;19506;51.040;3.856;2023-02-05T00:22:14;10.68;;;4.88;;
33148;SDS011;19506;51.040;3.856;2023-02-05T00:24:39;9.23;;;4.35;;
33148;SDS011;19506;51.040;3.856;2023-02-05T00:27:05;9.50;;;5.05;;
33148;SDS011;19506;51.040;3.856;2023-02-05T00:29:31;8.52;;;4.38;;
33148;SDS011;19506;51.040;3.856;2023-02-05T00:34:22;10.93;;;4.47;;
33148;SDS011;19506;51.040;3.856;2023-02-05T00:36:48;14.18;;;4.70;;
33148;SDS011;19506;51.040;3.856;2023-02-05T00:39:14;7.65;;;4.78;;
33148;SDS011;19506;51.040;3.856;2023-02-05T00:41:40;10.27;;;4.43;;
33148;SDS011;19506;51.040;3.856;2023-02-05T00:44:05;8.93;;;4.28;;
33148;SDS011;19506;51.040;3.856;2023-02-05T00:46:31;7.15;;;3.97;;
33148;SDS011;19506;51.040;3.856;2023-02-05T00:48:57;11.38;;;4.65;;
33148;SDS011;19506;51.040;3.856;2023-02-05T00:51:22;7.88;;;4.43;;
33148;SDS011;19506;51.040;3.856;2023-02-05T00:53:48;8.35;;;4.40;;
33148;SDS011;19506;51.040;3.856;2023-02-05T00:58:40;6.40;;;4.22;;
33148;SDS011;19506;51.040;3.856;2023-02-05T01:01:11;8.10;;;4.60;;
33148;SDS011;19506;51.040;3.856;2023-02-05T01:03:38;10.50;;;4.32;;
33148;SDS011;19506;51.040;3.856;2023-02-05T01:06:04;10.20;;;4.53;;
33148;SDS011;19506;51.040;3.856;2023-02-05T01:10:56;6.15;;;3.53;;
33148;SDS011;19506;51.040;3.856;2023-02-05T01:13:22;9.20;;;3.90;;
33148;SDS011;19506;51.040;3.856;2023-02-05T01:18:13;9.05;;;4.20;;
33148;SDS011;19506;51.040;3.856;2023-02-05T01:20:39;15.60;;;5.07;;
33148;SDS011;19506;51.040;3.856;2023-02-05T01:23:05;6.90;;;3.70;;
33148;SDS011;19506;51.040;3.856;2023-02-05T01:27:57;5.03;;;3.92;;
33148;SDS011;19506;51.040;3.856;2023-02-05T01:30:22;9.43;;;4.20;;
33148;SDS011;19506;51.040;3.856;2023-02-05T01:32:48;7.18;;;3.60;;
33148;SDS011;19506;51.040;3.856;2023-02-05T01:35:14;7.05;;;3.95;;
33148;SDS011;19506;51.040;3.856;2023-02-05T01:37:40;7.35;;;3.85;;
33148;SDS011;19506;51.040;3.856;2023-02-05T01:40:05;7.05;;;3.83;;
33148;SDS011;19506;51.040;3.856;2023-02-05T01:42:31;8.65;;;4.05;;
33148;SDS011;19506;51.040;3.856;2023-02-05T01:47:46;8.93;;;3.92;;
33148;SDS011;19506;51.040;3.856;2023-02-05T01:50:12;5.82;;;3.42;;
33148;SDS011;19506;51.040;3.856;2023-02-05T01:52:39;7.00;;;3.90;;
33148;SDS011;19506;51.040;3.856;2023-02-05T01:57:31;6.25;;;3.53;;
33148;SDS011;19506;51.040;3.856;2023-02-05T01:59:57;6.05;;;3.80;;
33148;SDS011;19506;51.040;3.856;2023-02-05T02:02:23;7.97;;;4.15;;
33148;SDS011;19506;51.040;3.856;2023-02-05T02:04:51;6.18;;;3.80;;
33148;SDS011;19506;51.040;3.856;2023-02-05T02:07:21;6.30;;;3.38;;
33148;SDS011;19506;51.040;3.856;2023-02-05T02:09:47;7.03;;;4.22;;
33148;SDS011;19506;51.040;3.856;2023-02-05T02:12:16;7.63;;;3.28;;
33148;SDS011;19506;51.040;3.856;2023-02-05T02:14:46;7.07;;;3.60;;
33148;SDS011;19506;51.040;3.856;2023-02-05T02:17:15;6.90;;;3.78;;
33148;SDS011;19506;51.040;3.856;2023-02-05T02:28:07;10.00;;;3.67;;
33148;SDS011;19506;51.040;3.856;2023-02-05T02:46:37;5.05;;;3.10;;
33148;SDS011;19506;51.040;3.856;2023-02-05T02:49:10;4.97;;;3.00;;
33148;SDS011;19506;51.040;3.856;2023-02-05T02:51:57;5.05;;;3.25;;
33148;SDS011;19506;51.040;3.856;2023-02-05T02:54:26;8.70;;;3.78;;
33148;SDS011;19506;51.040;3.856;2023-02-05T02:56:53;5.10;;;3.20;;
33148;SDS011;19506;51.040;3.856;2023-02-05T02:59:22;5.85;;;3.15;;
33148;SDS011;19506;51.040;3.856;2023-02-05T03:01:53;7.05;;;3.30;;
33148;SDS011;19506;51.040;3.856;2023-02-05T03:04:26;5.65;;;3.47;;
33148;SDS011;19506;51.040;3.856;2023-02-05T03:07:00;5.25;;;3.40;;
33148;SDS011;19506;51.040;3.856;2023-02-05T03:09:48;6.13;;;3.20;;
33148;SDS011;19506;51.040;3.856;2023-02-05T03:12:18;5.82;;;3.08;;
33148;SDS011;19506;51.040;3.856;2023-02-05T03:14:44;4.63;;;3.25;;
33148;SDS011;19506;51.040;3.856;2023-02-05T03:19:42;4.30;;;3.15;;
33148;SDS011;19506;51.040;3.856;2023-02-05T03:22:12;9.65;;;3.55;;
33148;SDS011;19506;51.040;3.856;2023-02-05T03:27:04;4.80;;;3.22;;
33148;SDS011;19506;51.040;3.856;2023-02-05T03:29:36;4.15;;;2.95;;
33148;SDS011;19506;51.040;3.856;2023-02-05T03:40:52;3.80;;;2.53;;
33148;SDS011;19506;51.040;3.856;2023-02-05T03:43:46;7.95;;;2.80;;
33148;SDS011;19506;51.040;3.856;2023-02-05T03:51:45;5.32;;;3.25;;
33148;SDS011;19506;51.040;3.856;2023-02-05T03:54:30;5.78;;;2.35;;
33148;SDS011;19506;51.040;3.856;2023-02-05T03:57:21;5.72;;;2.85;;
33148;SDS011;19506;51.040;3.856;2023-02-05T03:59:51;4.88;;;2.53;;
33148;SDS011;19506;51.040;3.856;2023-02-05T04:02:17;5.13;;;2.90;;
33148;SDS011;19506;51.040;3.856;2023-02-05T04:04:44;4.25;;;2.67;;
33148;SDS011;19506;51.040;3.856;2023-02-05T04:09:36;4.72;;;2.80;;
33148;SDS011;19506;51.040;3.856;2023-02-05T04:12:01;5.20;;;2.83;;
33148;SDS011;19506;51.040;3.856;2023-02-05T04:14:27;4.20;;;3.00;;
33148;SDS011;19506;51.040;3.856;2023-02-05T04:19:18;4.82;;;2.70;;
33148;SDS011;19506;51.040;3.856;2023-02-05T04:21:44;4.78;;;3.08;;
33148;SDS011;19506;51.040;3.856;2023-02-05T04:26:35;3.40;;;2.55;;
33148;SDS011;19506;51.040;3.856;2023-02-05T04:29:01;2.67;;;2.20;;
33148;SDS011;19506;51.040;3.856;2023-02-05T04:33:52;3.47;;;2.85;;
33148;SDS011;19506;51.040;3.856;2023-02-05T04:36:18;4.80;;;2.65;;
33148;SDS011;19506;51.040;3.856;2023-02-05T04:38:43;4.10;;;2.80;;
33148;SDS011;19506;51.040;3.856;2023-02-05T04:43:34;5.57;;;4.03;;
33148;SDS011;19506;51.040;3.856;2023-02-05T04:48:33;3.97;;;2.47;;
33148;SDS011;19506;51.040;3.856;2023-02-05T04:50:59;2.63;;;2.30;;
33148;SDS011;19506;51.040;3.856;2023-02-05T04:53:29;3.92;;;2.47;;
33148;SDS011;19506;51.040;3.856;2023-02-05T04:58:27;3.22;;;2.35;;
33148;SDS011;19506;51.040;3.856;2023-02-05T05:03:19;3.88;;;2.45;;
33148;SDS011;19506;51.040;3.856;2023-02-05T05:05:44;2.67;;;2.28;;
33148;SDS011;19506;51.040;3.856;2023-02-05T05:08:11;3.95;;;2.50;;
33148;SDS011;19506;51.040;3.856;2023-02-05T05:13:02;6.65;;;2.42;;
33148;SDS011;19506;51.040;3.856;2023-02-05T05:17:53;4.57;;;2.47;;
33148;SDS011;19506;51.040;3.856;2023-02-05T05:20:19;3.80;;;2.25;;
33148;SDS011;19506;51.040;3.856;2023-02-05T05:22:44;2.33;;;2.05;;
33148;SDS011;19506;51.040;3.856;2023-02-05T05:25:10;3.53;;;2.40;;
33148;SDS011;19506;51.040;3.856;2023-02-05T05:30:01;4.93;;;2.30;;
33148;SDS011;19506;51.040;3.856;2023-02-05T05:32:27;2.85;;;2.28;;
33148;SDS011;19506;51.040;3.856;2023-02-05T05:34:53;4.20;;;2.50;;
33148;SDS011;19506;51.040;3.856;2023-02-05T05:37:21;3.83;;;2.50;;
33148;SDS011;19506;51.040;3.856;2023-02-05T05:39:47;2.85;;;2.55;;
33148;SDS011;19506;51.040;3.856;2023-02-05T05:42:31;7.90;;;2.75;;
33148;SDS011;19506;51.040;3.856;2023-02-05T05:45:15;3.75;;;2.13;;
33148;SDS011;19506;51.040;3.856;2023-02-05T05:50:06;3.95;;;2.00;;
33148;SDS011;19506;51.040;3.856;2023-02-05T05:54:58;3.58;;;2.33;;
33148;SDS011;19506;51.040;3.856;2023-02-05T05:57:24;4.80;;;2.50;;
33148;SDS011;19506;51.040;3.856;2023-02-05T05:59:50;3.75;;;2.78;;
33148;SDS011;19506;51.040;3.856;2023-02-05T06:04:41;3.97;;;2.60;;
33148;SDS011;19506;51.040;3.856;2023-02-05T06:07:06;3.05;;;2.10;;
33148;SDS011;19506;51.040;3.856;2023-02-05T06:09:32;6.05;;;3.42;;
33148;SDS011;19506;51.040;3.856;2023-02-05T06:11:58;2.67;;;2.10;;
33148;SDS011;19506;51.040;3.856;2023-02-05T06:14:24;2.85;;;2.10;;
33148;SDS011;19506;51.040;3.856;2023-02-05T06:16:49;3.83;;;2.03;;
33148;SDS011;19506;51.040;3.856;2023-02-05T06:19:16;2.67;;;2.03;;
33148;SDS011;19506;51.040;3.856;2023-02-05T06:21:42;3.85;;;2.53;;
33148;SDS011;19506;51.040;3.856;2023-02-05T06:26:33;3.10;;;2.30;;
33148;SDS011;19506;51.040;3.856;2023-02-05T06:28:59;3.97;;;2.45;;
33148;SDS011;19506;51.040;3.856;2023-02-05T06:31:27;3.10;;;1.95;;
33148;SDS011;19506;51.040;3.856;2023-02-05T06:33:54;2.92;;;1.80;;
33148;SDS011;19506;51.040;3.856;2023-02-05T06:38:45;3.15;;;2.20;;
33148;SDS011;19506;51.040;3.856;2023-02-05T06:43:36;4.68;;;2.33;;
33148;SDS011;19506;51.040;3.856;2023-02-05T06:46:02;4.25;;;2.40;;
33148;SDS011;19506;51.040;3.856;2023-02-05T06:50:53;3.72;;;2.20;;
33148;SDS011;19506;51.040;3.856;2023-02-05T06:53:19;2.95;;;1.90;;
33148;SDS011;19506;51.040;3.856;2023-02-05T06:55:44;2.92;;;2.03;;
33148;SDS011;19506;51.040;3.856;2023-02-05T06:58:10;2.28;;;1.77;;
33148;SDS011;19506;51.040;3.856;2023-02-05T07:00:36;2.92;;;2.10;;
33148;SDS011;19506;51.040;3.856;2023-02-05T07:03:01;3.53;;;2.17;;
33148;SDS011;19506;51.040;3.856;2023-02-05T07:05:27;3.05;;;2.03;;
33148;SDS011;19506;51.040;3.856;2023-02-05T07:07:53;2.70;;;1.90;;
33148;SDS011;19506;51.040;3.856;2023-02-05T07:10:19;4.50;;;2.17;;
33148;SDS011;19506;51.040;3.856;2023-02-05T07:12:44;3.55;;;1.60;;
33148;SDS011;19506;51.040;3.856;2023-02-05T07:15:10;3.28;;;2.08;;
33148;SDS011;19506;51.040;3.856;2023-02-05T07:17:36;7.10;;;2.17;;
33148;SDS011;19506;51.040;3.856;2023-02-05T07:20:03;10.27;;;2.17;;
33148;SDS011;19506;51.040;3.856;2023-02-05T07:22:29;10.57;;;2.75;;
33148;SDS011;19506;51.040;3.856;2023-02-05T07:27:21;9.30;;;2.05;;
33148;SDS011;19506;51.040;3.856;2023-02-05T07:29:47;6.88;;;2.30;;
33148;SDS011;19506;51.040;3.856;2023-02-05T07:32:13;10.52;;;2.97;;
33148;SDS011;19506;51.040;3.856;2023-02-05T07:34:38;3.00;;;1.58;;
33148;SDS011;19506;51.040;3.856;2023-02-05T07:37:04;7.55;;;2.35;;
33148;SDS011;19506;51.040;3.856;2023-02-05T07:41:57;6.93;;;2.15;;
33148;SDS011;19506;51.040;3.856;2023-02-05T07:44:23;7.90;;;2.55;;
33148;SDS011;19506;51.040;3.856;2023-02-05T07:49:15;4.68;;;2.28;;
33148;SDS011;19506;51.040;3.856;2023-02-05T07:54:06;5.15;;;2.08;;
33148;SDS011;19506;51.040;3.856;2023-02-05T07:56:33;11.98;;;2.08;;
33148;SDS011;19506;51.040;3.856;2023-02-05T08:01:24;7.35;;;1.85;;
33148;SDS011;19506;51.040;3.856;2023-02-05T08:06:16;15.60;;;2.15;;
33148;SDS011;19506;51.040;3.856;2023-02-05T08:08:42;5.80;;;2.13;;
33148;SDS011;19506;51.040;3.856;2023-02-05T08:11:09;11.93;;;1.95;;
33148;SDS011;19506;51.040;3.856;2023-02-05T08:13:39;13.95;;;2.20;;
33148;SDS011;19506;51.040;3.856;2023-02-05T08:16:05;8.18;;;2.05;;
33148;SDS011;19506;51.040;3.856;2023-02-05T08:18:32;5.70;;;1.95;;
33148;SDS011;19506;51.040;3.856;2023-02-05T08:20:58;13.60;;;2.47;;
33148;SDS011;19506;51.040;3.856;2023-02-05T08:23:23;10.43;;;2.17;;
33148;SDS011;19506;51.040;3.856;2023-02-05T08:25:55;14.77;;;2.80;;
33148;SDS011;19506;51.040;3.856;2023-02-05T08:28:22;13.68;;;2.60;;
33148;SDS011;19506;51.040;3.856;2023-02-05T08:30:48;5.75;;;2.10;;
33148;SDS011;19506;51.040;3.856;2023-02-05T08:33:14;6.15;;;1.92;;
33148;SDS011;19506;51.040;3.856;2023-02-05T08:35:40;10.13;;;2.20;;
33148;SDS011;19506;51.040;3.856;2023-02-05T08:38:06;6.18;;;2.35;;
33148;SDS011;19506;51.040;3.856;2023-02-05T08:40:31;17.58;;;2.47;;
33148;SDS011;19506;51.040;3.856;2023-02-05T08:42:57;16.48;;;3.28;;
33148;SDS011;19506;51.040;3.856;2023-02-05T08:45:24;7.97;;;2.38;;
33148;SDS011;19506;51.040;3.856;2023-02-05T08:47:51;28.35;;;3.47;;
33148;SDS011;19506;51.040;3.856;2023-02-05T08:50:17;14.82;;;3.83;;
33148;SDS011;19506;51.040;3.856;2023-02-05T08:52:43;12.10;;;2.55;;
33148;SDS011;19506;51.040;3.856;2023-02-05T08:55:10;14.32;;;2.72;;
33148;SDS011;19506;51.040;3.856;2023-02-05T08:57:35;11.02;;;2.88;;
33148;SDS011;19506;51.040;3.856;2023-02-05T09:00:01;11.60;;;2.63;;
33148;SDS011;19506;51.040;3.856;2023-02-05T09:02:28;10.02;;;2.60;;
33148;SDS011;19506;51.040;3.856;2023-02-05T09:04:54;16.58;;;3.25;;
33148;SDS011;19506;51.040;3.856;2023-02-05T09:07:20;19.67;;;2.58;;
33148;SDS011;19506;51.040;3.856;2023-02-05T09:09:45;11.93;;;3.53;;
33148;SDS011;19506;51.040;3.856;2023-02-05T09:12:11;10.80;;;2.67;;
33148;SDS011;19506;51.040;3.856;2023-02-05T09:14:37;15.70;;;3.05;;
33148;SDS011;19506;51.040;3.856;2023-02-05T09:17:04;9.38;;;2.67;;
33148;SDS011;19506;51.040;3.856;2023-02-05T09:19:35;8.68;;;2.85;;
33148;SDS011;19506;51.040;3.856;2023-02-05T09:22:02;17.50;;;3.33;;
33148;SDS011;19506;51.040;3.856;2023-02-05T09:24:28;16.42;;;3.25;;
33148;SDS011;19506;51.040;3.856;2023-02-05T09:26:54;16.27;;;3.17;;
33148;SDS011;19506;51.040;3.856;2023-02-05T09:29:19;24.95;;;3.75;;
33148;SDS011;19506;51.040;3.856;2023-02-05T09:31:45;25.80;;;4.97;;
33148;SDS011;19506;51.040;3.856;2023-02-05T09:34:11;18.73;;;4.47;;
33148;SDS011;19506;51.040;3.856;2023-02-05T09:36:37;19.77;;;5.18;;
33148;SDS011;19506;51.040;3.856;2023-02-05T09:39:04;29.08;;;5.07;;
33148;SDS011;19506;51.040;3.856;2023-02-05T09:41:43;14.45;;;4.40;;
33148;SDS011;19506;51.040;3.856;2023-02-05T09:50:11;21.80;;;5.35;;
33148;SDS011;19506;51.040;3.856;2023-02-05T09:52:43;21.35;;;5.28;;
33148;SDS011;19506;51.040;3.856;2023-02-05T09:55:21;14.30;;;4.68;;
33148;SDS011;19506;51.040;3.856;2023-02-05T09:57:50;13.48;;;4.55;;
33148;SDS011;19506;51.040;3.856;2023-02-05T10:00:23;20.23;;;5.28;;
33148;SDS011;19506;51.040;3.856;2023-02-05T10:02:54;27.20;;;6.20;;
33148;SDS011;19506;51.040;3.856;2023-02-05T10:05:44;22.10;;;6.25;;
33148;SDS011;19506;51.040;3.856;2023-02-05T10:08:30;20.77;;;6.10;;
33148;SDS011;19506;51.040;3.856;2023-02-05T10:11:04;21.83;;;6.63;;
33148;SDS011;19506;51.040;3.856;2023-02-05T10:13:44;24.75;;;6.93;;
33148;SDS011;19506;51.040;3.856;2023-02-05T10:24:00;31.65;;;8.10;;
33148;SDS011;19506;51.040;3.856;2023-02-05T10:26:35;32.10;;;7.43;;
33148;SDS011;19506;51.040;3.856;2023-02-05T10:34:28;27.23;;;8.00;;
33148;SDS011;19506;51.040;3.856;2023-02-05T10:36:56;23.37;;;6.10;;
33148;SDS011;19506;51.040;3.856;2023-02-05T10:39:24;27.20;;;6.65;;
33148;SDS011;19506;51.040;3.856;2023-02-05T10:41:55;24.58;;;6.32;;
33148;SDS011;19506;51.040;3.856;2023-02-05T10:44:33;23.52;;;6.10;;
33148;SDS011;19506;51.040;3.856;2023-02-05T10:47:05;31.30;;;6.32;;
33148;SDS011;19506;51.040;3.856;2023-02-05T10:49:45;25.58;;;6.38;;
33148;SDS011;19506;51.040;3.856;2023-02-05T10:52:18;35.08;;;7.13;;
33148;SDS011;19506;51.040;3.856;2023-02-05T10:54:44;42.40;;;8.32;;
33148;SDS011;19506;51.040;3.856;2023-02-05T10:57:14;26.27;;;6.28;;
33148;SDS011;19506;51.040;3.856;2023-02-05T10:59:46;20.75;;;6.28;;
33148;SDS011;19506;51.040;3.856;2023-02-05T11:02:16;21.40;;;6.28;;
33148;SDS011;19506;51.040;3.856;2023-02-05T11:04:46;25.50;;;6.63;;
33148;SDS011;19506;51.040;3.856;2023-02-05T11:07:32;30.77;;;5.97;;
33148;SDS011;19506;51.040;3.856;2023-02-05T11:12:45;20.63;;;6.18;;
33148;SDS011;19506;51.040;3.856;2023-02-05T11:15:24;18.85;;;4.30;;
33148;SDS011;19506;51.040;3.856;2023-02-05T11:18:02;29.13;;;5.45;;
33148;SDS011;19506;51.040;3.856;2023-02-05T11:20:33;19.67;;;5.18;;
33148;SDS011;19506;51.040;3.856;2023-02-05T11:23:06;20.45;;;5.97;;
33148;SDS011;19506;51.040;3.856;2023-02-05T11:30:53;22.02;;;5.95;;
33148;SDS011;19506;51.040;3.856;2023-02-05T11:33:23;17.85;;;4.65;;
33148;SDS011;19506;51.040;3.856;2023-02-05T11:36:04;14.85;;;5.00;;
33148;SDS011;19506;51.040;3.856;2023-02-05T11:38:46;39.05;;;6.82;;
33148;SDS011;19506;51.040;3.856;2023-02-05T11:41:25;26.58;;;6.07;;
33148;SDS011;19506;51.040;3.856;2023-02-05T11:44:17;16.70;;;5.13;;
33148;SDS011;19506;51.040;3.856;2023-02-05T11:46:47;24.08;;;5.47;;
33148;SDS011;19506;51.040;3.856;2023-02-05T11:49:21;21.85;;;4.80;;
33148;SDS011;19506;51.040;3.856;2023-02-05T11:51:53;17.00;;;4.45;;
33148;SDS011;19506;51.040;3.856;2023-02-05T11:54:30;20.10;;;5.10;;
33148;SDS011;19506;51.040;3.856;2023-02-05T11:59:39;26.88;;;5.65;;
33148;SDS011;19506;51.040;3.856;2023-02-05T12:02:23;15.38;;;4.03;;
33148;SDS011;19506;51.040;3.856;2023-02-05T12:05:17;18.00;;;4.82;;
33148;SDS011;19506;51.040;3.856;2023-02-05T12:13:50;17.00;;;4.25;;
33148;SDS011;19506;51.040;3.856;2023-02-05T12:16:44;18.67;;;5.15;;
33148;SDS011;19506;51.040;3.856;2023-02-05T12:19:17;26.75;;;6.05;;
33148;SDS011;19506;51.040;3.856;2023-02-05T12:30:25;19.77;;;5.50;;
33148;SDS011;19506;51.040;3.856;2023-02-05T12:33:25;15.93;;;5.15;;
33148;SDS011;19506;51.040;3.856;2023-02-05T12:41:44;18.63;;;4.05;;
33148;SDS011;19506;51.040;3.856;2023-02-05T12:58:03;16.88;;;4.82;;
33148;SDS011;19506;51.040;3.856;2023-02-05T13:00:40;20.23;;;4.35;;
33148;SDS011;19506;51.040;3.856;2023-02-05T13:04:01;21.30;;;5.13;;
33148;SDS011;19506;51.040;3.856;2023-02-05T13:06:32;14.23;;;3.85;;
33148;SDS011;19506;51.040;3.856;2023-02-05T13:11:52;15.75;;;4.25;;
33148;SDS011;19506;51.040;3.856;2023-02-05T13:16:58;15.13;;;4.85;;
33148;SDS011;19506;51.040;3.856;2023-02-05T13:19:50;22.45;;;3.25;;
33148;SDS011;19506;51.040;3.856;2023-02-05T13:22:23;21.50;;;5.32;;
33148;SDS011;19506;51.040;3.856;2023-02-05T13:33:48;12.10;;;3.13;;
33148;SDS011;19506;51.040;3.856;2023-02-05T13:38:59;15.63;;;4.22;;
33148;SDS011;19506;51.040;3.856;2023-02-05T13:54:09;12.65;;;4.07;;
33148;SDS011;19506;51.040;3.856;2023-02-05T13:57:25;17.20;;;4.32;;
33148;SDS011;19506;51.040;3.856;2023-02-05T14:00:29;13.50;;;3.30;;
33148;SDS011;19506;51.040;3.856;2023-02-05T14:02:56;12.73;;;3.50;;
33148;SDS011;19506;51.040;3.856;2023-02-05T14:05:31;15.77;;;3.35;;
33148;SDS011;19506;51.040;3.856;2023-02-05T14:07:59;13.48;;;3.33;;
33148;SDS011;19506;51.040;3.856;2023-02-05T14:13:16;10.32;;;3.38;;
33148;SDS011;19506;51.040;3.856;2023-02-05T14:15:48;25.33;;;4.32;;
33148;SDS011;19506;51.040;3.856;2023-02-05T14:26:50;17.25;;;3.50;;
33148;SDS011;19506;51.040;3.856;2023-02-05T14:32:02;9.52;;;3.70;;
33148;SDS011;19506;51.040;3.856;2023-02-05T14:36:56;12.88;;;3.53;;
33148;SDS011;19506;51.040;3.856;2023-02-05T14:39:32;16.90;;;4.20;;
33148;SDS011;19506;51.040;3.856;2023-02-05T14:42:04;10.75;;;3.67;;
33148;SDS011;19506;51.040;3.856;2023-02-05T14:44:32;15.50;;;3.25;;
33148;SDS011;19506;51.040;3.856;2023-02-05T14:49:34;15.82;;;4.22;;
33148;SDS011;19506;51.040;3.856;2023-02-05T14:52:05;15.30;;;4.75;;
33148;SDS011;19506;51.040;3.856;2023-02-05T14:54:44;19.75;;;3.60;;
33148;SDS011;19506;51.040;3.856;2023-02-05T14:57:19;14.15;;;3.97;;
33148;SDS011;19506;51.040;3.856;2023-02-05T14:59:57;9.73;;;2.97;;
33148;SDS011;19506;51.040;3.856;2023-02-05T15:05:20;10.85;;;3.95;;
33148;SDS011;19506;51.040;3.856;2023-02-05T15:10:56;17.77;;;3.25;;
33148;SDS011;19506;51.040;3.856;2023-02-05T15:13:29;15.98;;;3.65;;
33148;SDS011;19506;51.040;3.856;2023-02-05T15:21:04;15.30;;;4.30;;
33148;SDS011;19506;51.040;3.856;2023-02-05T15:23:37;10.55;;;3.97;;
33148;SDS011;19506;51.040;3.856;2023-02-05T15:26:13;17.67;;;4.35;;
33148;SDS011;19506;51.040;3.856;2023-02-05T15:28:57;27.58;;;3.90;;
33148;SDS011;19506;51.040;3.856;2023-02-05T15:37:01;10.75;;;3.67;;
33148;SDS011;19506;51.040;3.856;2023-02-05T15:42:37;15.13;;;4.03;;
33148;SDS011;19506;51.040;3.856;2023-02-05T15:53:33;20.63;;;3.80;;
33148;SDS011;19506;51.040;3.856;2023-02-05T15:56:10;17.17;;;3.60;;
33148;SDS011;19506;51.040;3.856;2023-02-05T15:58:49;18.58;;;3.67;;
33148;SDS011;19506;51.040;3.856;2023-02-05T16:01:22;23.15;;;4.30;;
33148;SDS011;19506;51.040;3.856;2023-02-05T16:03:56;21.35;;;4.60;;
33148;SDS011;19506;51.040;3.856;2023-02-05T16:06:22;12.55;;;3.53;;
33148;SDS011;19506;51.040;3.856;2023-02-05T16:08:50;17.50;;;4.28;;
33148;SDS011;19506;51.040;3.856;2023-02-05T16:16:30;12.10;;;4.25;;
33148;SDS011;19506;51.040;3.856;2023-02-05T16:19:00;16.17;;;3.30;;
33148;SDS011;19506;51.040;3.856;2023-02-05T16:21:32;11.43;;;3.30;;
33148;SDS011;19506;51.040;3.856;2023-02-05T16:24:11;9.82;;;2.95;;
33148;SDS011;19506;51.040;3.856;2023-02-05T16:26:56;11.48;;;3.55;;
33148;SDS011;19506;51.040;3.856;2023-02-05T16:29:28;10.75;;;2.90;;
33148;SDS011;19506;51.040;3.856;2023-02-05T16:32:02;13.93;;;3.53;;
33148;SDS011;19506;51.040;3.856;2023-02-05T16:34:30;12.95;;;3.78;;
33148;SDS011;19506;51.040;3.856;2023-02-05T16:37:01;11.35;;;3.33;;
33148;SDS011;19506;51.040;3.856;2023-02-05T16:39:37;15.20;;;3.95;;
33148;SDS011;19506;51.040;3.856;2023-02-05T16:47:34;27.15;;;10.65;;
33148;SDS011;19506;51.040;3.856;2023-02-05T16:50:00;33.40;;;10.73;;
33148;SDS011;19506;51.040;3.856;2023-02-05T16:52:55;27.05;;;9.98;;
33148;SDS011;19506;51.040;3.856;2023-02-05T16:57:52;23.70;;;8.02;;
33148;SDS011;19506;51.040;3.856;2023-02-05T17:00:23;23.25;;;7.75;;
33148;SDS011;19506;51.040;3.856;2023-02-05T17:02:52;36.83;;;11.75;;
33148;SDS011;19506;51.040;3.856;2023-02-05T17:05:25;24.08;;;10.43;;
33148;SDS011;19506;51.040;3.856;2023-02-05T17:07:54;30.77;;;12.60;;
33148;SDS011;19506;51.040;3.856;2023-02-05T17:10:28;24.88;;;11.82;;
33148;SDS011;19506;51.040;3.856;2023-02-05T17:15:28;38.35;;;10.77;;
33148;SDS011;19506;51.040;3.856;2023-02-05T17:20:46;31.45;;;10.25;;
33148;SDS011;19506;51.040;3.856;2023-02-05T17:23:15;33.53;;;9.48;;
33148;SDS011;19506;51.040;3.856;2023-02-05T17:28:24;37.33;;;9.73;;
33148;SDS011;19506;51.040;3.856;2023-02-05T17:30:51;35.35;;;9.63;;
33148;SDS011;19506;51.040;3.856;2023-02-05T17:33:20;26.52;;;8.43;;
33148;SDS011;19506;51.040;3.856;2023-02-05T17:35:47;31.60;;;9.55;;
33148;SDS011;19506;51.040;3.856;2023-02-05T17:38:13;28.80;;;8.95;;
33148;SDS011;19506;51.040;3.856;2023-02-05T17:40:38;24.55;;;7.53;;
33148;SDS011;19506;51.040;3.856;2023-02-05T17:43:04;27.58;;;8.25;;
33148;SDS011;19506;51.040;3.856;2023-02-05T17:45:31;23.65;;;8.30;;
33148;SDS011;19506;51.040;3.856;2023-02-05T17:48:01;44.10;;;7.72;;
33148;SDS011;19506;51.040;3.856;2023-02-05T17:50:27;21.67;;;8.23;;
33148;SDS011;19506;51.040;3.856;2023-02-05T17:52:53;39.08;;;8.30;;
33148;SDS011;19506;51.040;3.856;2023-02-05T17:55:19;26.67;;;7.35;;
33148;SDS011;19506;51.040;3.856;2023-02-05T17:57:46;25.83;;;7.13;;
33148;SDS011;19506;51.040;3.856;2023-02-05T18:00:13;32.10;;;8.13;;
33148;SDS011;19506;51.040;3.856;2023-02-05T18:02:50;22.80;;;6.28;;
33148;SDS011;19506;51.040;3.856;2023-02-05T18:05:16;23.10;;;6.93;;
33148;SDS011;19506;51.040;3.856;2023-02-05T18:07:49;22.33;;;6.65;;
33148;SDS011;19506;51.040;3.856;2023-02-05T18:10:25;19.10;;;7.00;;
33148;SDS011;19506;51.040;3.856;2023-02-05T18:12:52;31.35;;;8.23;;
33148;SDS011;19506;51.040;3.856;2023-02-05T18:15:20;31.70;;;9.93;;
33148;SDS011;19506;51.040;3.856;2023-02-05T18:17:46;29.02;;;9.35;;
33148;SDS011;19506;51.040;3.856;2023-02-05T18:20:12;34.33;;;9.93;;
33148;SDS011;19506;51.040;3.856;2023-02-05T18:22:39;29.92;;;8.90;;
33148;SDS011;19506;51.040;3.856;2023-02-05T18:25:05;30.45;;;9.10;;
33148;SDS011;19506;51.040;3.856;2023-02-05T18:27:31;30.65;;;9.10;;
33148;SDS011;19506;51.040;3.856;2023-02-05T18:29:57;37.38;;;9.48;;
33148;SDS011;19506;51.040;3.856;2023-02-05T18:32:23;33.95;;;7.82;;
33148;SDS011;19506;51.040;3.856;2023-02-05T18:34:49;33.22;;;8.13;;
33148;SDS011;19506;51.040;3.856;2023-02-05T18:37:15;28.60;;;9.05;;
33148;SDS011;19506;51.040;3.856;2023-02-05T18:39:42;31.60;;;10.05;;
33148;SDS011;19506;51.040;3.856;2023-02-05T18:42:09;34.40;;;10.07;;
33148;SDS011;19506;51.040;3.856;2023-02-05T18:44:36;29.15;;;9.00;;
33148;SDS011;19506;51.040;3.856;2023-02-05T18:47:02;40.55;;;9.77;;
33148;SDS011;19506;51.040;3.856;2023-02-05T18:49:29;26.98;;;8.70;;
33148;SDS011;19506;51.040;3.856;2023-02-05T18:51:56;32.20;;;8.60;;
33148;SDS011;19506;51.040;3.856;2023-02-05T18:54:21;31.35;;;9.13;;
33148;SDS011;19506;51.040;3.856;2023-02-05T18:56:47;25.00;;;8.18;;
33148;SDS011;19506;51.040;3.856;2023-02-05T18:59:13;26.38;;;8.13;;
33148;SDS011;19506;51.040;3.856;2023-02-05T19:01:40;23.67;;;6.88;;
33148;SDS011;19506;51.040;3.856;2023-02-05T19:04:11;32.33;;;8.77;;
33148;SDS011;19506;51.040;3.856;2023-02-05T19:06:42;39.22;;;11.57;;
33148;SDS011;19506;51.040;3.856;2023-02-05T19:09:12;27.83;;;9.60;;
33148;SDS011;19506;51.040;3.856;2023-02-05T19:11:39;41.60;;;9.27;;
33148;SDS011;19506;51.040;3.856;2023-02-05T19:14:05;33.10;;;10.18;;
33148;SDS011;19506;51.040;3.856;2023-02-05T19:16:35;26.83;;;8.25;;
33148;SDS011;19506;51.040;3.856;2023-02-05T19:19:02;28.70;;;9.20;;
33148;SDS011;19506;51.040;3.856;2023-02-05T19:21:28;27.30;;;9.48;;
33148;SDS011;19506;51.040;3.856;2023-02-05T19:23:55;32.60;;;8.07;;
33148;SDS011;19506;51.040;3.856;2023-02-05T19:26:24;29.27;;;7.72;;
33148;SDS011;19506;51.040;3.856;2023-02-05T19:28:56;21.67;;;7.28;;
33148;SDS011;19506;51.040;3.856;2023-02-05T19:31:28;23.13;;;7.75;;
33148;SDS011;19506;51.040;3.856;2023-02-05T19:33:56;22.15;;;7.97;;
33148;SDS011;19506;51.040;3.856;2023-02-05T19:36:23;33.30;;;8.48;;